sensor_id;sensor_type;location;lat;lon;timestamp;P1;durP1;ratioP1;P2;durP2;ratioP2
81908;SDS011;71372;43.514;1.512;2023-08-06T00:00:22;3.67;;;1.65;;
81908;SDS011;71372;43.514;1.512;2023-08-06T00:02:49;3.85;;;1.70;;
81908;SDS011;71372;43.514;1.512;2023-08-06T00:05:15;4.15;;;2.15;;
81908;SDS011;71372;43.514;1.512;2023-08-06T00:07:47;4.00;;;1.90;;
81908;SDS011;71372;43.514;1.512;2023-08-06T00:10:13;3.67;;;1.90;;
81908;SDS011;71372;43.514;1.512;2023-08-06T00:12:39;5.15;;;1.90;;
81908;SDS011;71372;43.514;1.512;2023-08-06T00:15:06;3.67;;;1.90;;
81908;SDS011;71372;43.514;1.512;2023-08-06T00:17:33;7.72;;;2.30;;
81908;SDS011;71372;43.514;1.512;2023-08-06T00:19:59;3.28;;;2.03;;
81908;SDS011;71372;43.514;1.512;2023-08-06T00:22:33;6.00;;;2.00;;
81908;SDS011;71372;43.514;1.512;2023-08-06T00:25:00;6.88;;;2.90;;
81908;SDS011;71372;43.514;1.512;2023-08-06T00:27:26;3.72;;;2.10;;
81908;SDS011;71372;43.514;1.512;2023-08-06T00:29:52;4.95;;;2.20;;
81908;SDS011;71372;43.514;1.512;2023-08-06T00:32:18;4.90;;;2.30;;
81908;SDS011;71372;43.514;1.512;2023-08-06T00:34:44;4.60;;;2.30;;
81908;SDS011;71372;43.514;1.512;2023-08-06T00:37:10;5.70;;;2.22;;
81908;SDS011;71372;43.514;1.512;2023-08-06T00:39:36;4.80;;;2.30;;
81908;SDS011;71372;43.514;1.512;2023-08-06T00:42:02;6.15;;;2.47;;
81908;SDS011;71372;43.514;1.512;2023-08-06T00:44:29;4.72;;;2.42;;
81908;SDS011;71372;43.514;1.512;2023-08-06T00:46:55;7.57;;;2.67;;
81908;SDS011;71372;43.514;1.512;2023-08-06T00:49:21;5.18;;;2.40;;
81908;SDS011;71372;43.514;1.512;2023-08-06T00:51:47;3.53;;;2.28;;
81908;SDS011;71372;43.514;1.512;2023-08-06T00:54:13;8.43;;;2.83;;
81908;SDS011;71372;43.514;1.512;2023-08-06T00:56:39;6.50;;;2.42;;
81908;SDS011;71372;43.514;1.512;2023-08-06T00:59:07;4.30;;;2.30;;
81908;SDS011;71372;43.514;1.512;2023-08-06T01:01:36;6.18;;;2.35;;
81908;SDS011;71372;43.514;1.512;2023-08-06T01:04:01;4.53;;;2.15;;
81908;SDS011;71372;43.514;1.512;2023-08-06T01:06:36;6.45;;;2.40;;
81908;SDS011;71372;43.514;1.512;2023-08-06T01:12:06;7.38;;;2.40;;
81908;SDS011;71372;43.514;1.512;2023-08-06T01:17:21;5.65;;;2.15;;
81908;SDS011;71372;43.514;1.512;2023-08-06T01:19:49;7.78;;;2.33;;
81908;SDS011;71372;43.514;1.512;2023-08-06T01:22:15;6.78;;;2.15;;
81908;SDS011;71372;43.514;1.512;2023-08-06T01:24:41;9.90;;;2.13;;
81908;SDS011;71372;43.514;1.512;2023-08-06T01:27:24;8.43;;;2.28;;
81908;SDS011;71372;43.514;1.512;2023-08-06T01:29:56;7.43;;;2.05;;
81908;SDS011;71372;43.514;1.512;2023-08-06T01:32:30;7.00;;;1.95;;
81908;SDS011;71372;43.514;1.512;2023-08-06T01:34:59;6.32;;;1.80;;
81908;SDS011;71372;43.514;1.512;2023-08-06T01:37:27;6.50;;;1.52;;
81908;SDS011;71372;43.514;1.512;2023-08-06T01:42:20;6.78;;;1.77;;
81908;SDS011;71372;43.514;1.512;2023-08-06T01:44:46;7.28;;;1.70;;
81908;SDS011;71372;43.514;1.512;2023-08-06T01:47:12;6.53;;;1.75;;
81908;SDS011;71372;43.514;1.512;2023-08-06T01:49:38;9.05;;;2.00;;
81908;SDS011;71372;43.514;1.512;2023-08-06T01:52:04;8.68;;;2.28;;
81908;SDS011;71372;43.514;1.512;2023-08-06T01:54:30;5.13;;;1.50;;
81908;SDS011;71372;43.514;1.512;2023-08-06T01:56:56;9.90;;;2.05;;
81908;SDS011;71372;43.514;1.512;2023-08-06T01:59:24;11.07;;;1.73;;
81908;SDS011;71372;43.514;1.512;2023-08-06T02:01:50;8.60;;;2.00;;
81908;SDS011;71372;43.514;1.512;2023-08-06T02:04:16;9.70;;;2.00;;
81908;SDS011;71372;43.514;1.512;2023-08-06T02:06:42;8.25;;;1.75;;
81908;SDS011;71372;43.514;1.512;2023-08-06T02:09:08;10.90;;;1.92;;
81908;SDS011;71372;43.514;1.512;2023-08-06T02:11:34;7.97;;;1.77;;
81908;SDS011;71372;43.514;1.512;2023-08-06T02:14:00;8.48;;;2.22;;
81908;SDS011;71372;43.514;1.512;2023-08-06T02:16:26;12.05;;;2.20;;
81908;SDS011;71372;43.514;1.512;2023-08-06T02:18:52;8.45;;;1.60;;
81908;SDS011;71372;43.514;1.512;2023-08-06T02:21:17;12.50;;;2.40;;
81908;SDS011;71372;43.514;1.512;2023-08-06T02:23:43;8.82;;;1.55;;
81908;SDS011;71372;43.514;1.512;2023-08-06T02:26:09;9.65;;;1.73;;
81908;SDS011;71372;43.514;1.512;2023-08-06T02:28:35;10.27;;;1.88;;
81908;SDS011;71372;43.514;1.512;2023-08-06T02:31:01;11.20;;;1.92;;
81908;SDS011;71372;43.514;1.512;2023-08-06T02:33:27;11.57;;;1.70;;
81908;SDS011;71372;43.514;1.512;2023-08-06T02:36:03;7.15;;;1.70;;
81908;SDS011;71372;43.514;1.512;2023-08-06T02:38:30;10.63;;;1.90;;
81908;SDS011;71372;43.514;1.512;2023-08-06T02:40:56;11.52;;;1.85;;
81908;SDS011;71372;43.514;1.512;2023-08-06T02:43:22;10.85;;;1.45;;
81908;SDS011;71372;43.514;1.512;2023-08-06T02:45:48;8.90;;;1.42;;
81908;SDS011;71372;43.514;1.512;2023-08-06T02:48:14;10.52;;;1.50;;
81908;SDS011;71372;43.514;1.512;2023-08-06T02:50:41;8.88;;;1.50;;
81908;SDS011;71372;43.514;1.512;2023-08-06T02:53:07;8.00;;;1.50;;
81908;SDS011;71372;43.514;1.512;2023-08-06T02:55:34;7.38;;;1.35;;
81908;SDS011;71372;43.514;1.512;2023-08-06T02:58:01;10.32;;;1.33;;
81908;SDS011;71372;43.514;1.512;2023-08-06T03:00:27;9.90;;;1.80;;
81908;SDS011;71372;43.514;1.512;2023-08-06T03:02:53;14.10;;;1.73;;
81908;SDS011;71372;43.514;1.512;2023-08-06T03:05:19;10.60;;;2.15;;
81908;SDS011;71372;43.514;1.512;2023-08-06T03:07:48;8.40;;;1.45;;
81908;SDS011;71372;43.514;1.512;2023-08-06T03:10:14;9.90;;;1.58;;
81908;SDS011;71372;43.514;1.512;2023-08-06T03:12:40;11.52;;;1.85;;
81908;SDS011;71372;43.514;1.512;2023-08-06T03:15:06;6.93;;;1.60;;
81908;SDS011;71372;43.514;1.512;2023-08-06T03:17:32;9.32;;;1.25;;
81908;SDS011;71372;43.514;1.512;2023-08-06T03:19:58;9.52;;;1.35;;
81908;SDS011;71372;43.514;1.512;2023-08-06T03:22:24;10.27;;;1.45;;
81908;SDS011;71372;43.514;1.512;2023-08-06T03:24:50;7.50;;;1.15;;
81908;SDS011;71372;43.514;1.512;2023-08-06T03:27:17;9.07;;;2.58;;
81908;SDS011;71372;43.514;1.512;2023-08-06T03:29:43;12.73;;;1.90;;
81908;SDS011;71372;43.514;1.512;2023-08-06T03:32:09;8.32;;;1.52;;
81908;SDS011;71372;43.514;1.512;2023-08-06T03:34:35;12.07;;;2.10;;
81908;SDS011;71372;43.514;1.512;2023-08-06T03:37:01;8.55;;;1.65;;
81908;SDS011;71372;43.514;1.512;2023-08-06T03:39:27;14.15;;;1.70;;
81908;SDS011;71372;43.514;1.512;2023-08-06T03:41:52;9.32;;;1.77;;
81908;SDS011;71372;43.514;1.512;2023-08-06T03:44:18;11.00;;;1.50;;
81908;SDS011;71372;43.514;1.512;2023-08-06T03:46:44;7.05;;;1.40;;
81908;SDS011;71372;43.514;1.512;2023-08-06T03:49:10;15.07;;;1.90;;
81908;SDS011;71372;43.514;1.512;2023-08-06T03:51:36;9.77;;;1.17;;
81908;SDS011;71372;43.514;1.512;2023-08-06T03:54:02;11.38;;;1.42;;
81908;SDS011;71372;43.514;1.512;2023-08-06T03:56:28;6.25;;;1.40;;
81908;SDS011;71372;43.514;1.512;2023-08-06T03:58:54;12.82;;;1.77;;
81908;SDS011;71372;43.514;1.512;2023-08-06T04:01:20;8.88;;;1.50;;
81908;SDS011;71372;43.514;1.512;2023-08-06T04:03:46;12.13;;;1.65;;
81908;SDS011;71372;43.514;1.512;2023-08-06T04:06:12;10.90;;;1.90;;
81908;SDS011;71372;43.514;1.512;2023-08-06T04:08:38;9.15;;;1.63;;
81908;SDS011;71372;43.514;1.512;2023-08-06T04:11:04;11.25;;;1.80;;
81908;SDS011;71372;43.514;1.512;2023-08-06T04:13:30;14.35;;;1.98;;
81908;SDS011;71372;43.514;1.512;2023-08-06T04:16:00;7.63;;;1.40;;
81908;SDS011;71372;43.514;1.512;2023-08-06T04:18:29;9.60;;;1.48;;
81908;SDS011;71372;43.514;1.512;2023-08-06T04:20:55;8.50;;;1.20;;
81908;SDS011;71372;43.514;1.512;2023-08-06T04:23:23;8.80;;;1.10;;
81908;SDS011;71372;43.514;1.512;2023-08-06T04:25:49;12.18;;;1.33;;
81908;SDS011;71372;43.514;1.512;2023-08-06T04:28:15;11.85;;;1.60;;
81908;SDS011;71372;43.514;1.512;2023-08-06T04:30:41;9.20;;;1.58;;
81908;SDS011;71372;43.514;1.512;2023-08-06T04:33:07;7.93;;;1.20;;
81908;SDS011;71372;43.514;1.512;2023-08-06T04:35:33;10.05;;;1.63;;
81908;SDS011;71372;43.514;1.512;2023-08-06T04:37:59;8.15;;;1.33;;
81908;SDS011;71372;43.514;1.512;2023-08-06T04:40:25;9.52;;;1.20;;
81908;SDS011;71372;43.514;1.512;2023-08-06T04:42:51;8.82;;;1.88;;
81908;SDS011;71372;43.514;1.512;2023-08-06T04:45:17;9.05;;;1.60;;
81908;SDS011;71372;43.514;1.512;2023-08-06T04:47:43;10.25;;;1.88;;
81908;SDS011;71372;43.514;1.512;2023-08-06T04:50:09;8.55;;;1.48;;
81908;SDS011;71372;43.514;1.512;2023-08-06T04:52:35;8.07;;;1.38;;
81908;SDS011;71372;43.514;1.512;2023-08-06T04:55:02;12.15;;;1.50;;
81908;SDS011;71372;43.514;1.512;2023-08-06T04:57:31;12.65;;;1.80;;
81908;SDS011;71372;43.514;1.512;2023-08-06T04:59:57;10.07;;;1.67;;
81908;SDS011;71372;43.514;1.512;2023-08-06T05:02:23;12.73;;;1.55;;
81908;SDS011;71372;43.514;1.512;2023-08-06T05:04:49;6.75;;;1.38;;
81908;SDS011;71372;43.514;1.512;2023-08-06T05:07:15;12.77;;;2.00;;
81908;SDS011;71372;43.514;1.512;2023-08-06T05:09:41;10.05;;;1.50;;
81908;SDS011;71372;43.514;1.512;2023-08-06T05:12:07;14.35;;;1.90;;
81908;SDS011;71372;43.514;1.512;2023-08-06T05:14:33;11.23;;;1.77;;
81908;SDS011;71372;43.514;1.512;2023-08-06T05:16:59;11.30;;;1.83;;
81908;SDS011;71372;43.514;1.512;2023-08-06T05:19:27;12.48;;;1.70;;
81908;SDS011;71372;43.514;1.512;2023-08-06T05:21:53;13.15;;;1.95;;
81908;SDS011;71372;43.514;1.512;2023-08-06T05:24:19;10.48;;;1.45;;
81908;SDS011;71372;43.514;1.512;2023-08-06T05:26:45;10.55;;;1.48;;
81908;SDS011;71372;43.514;1.512;2023-08-06T05:31:39;16.58;;;1.92;;
81908;SDS011;71372;43.514;1.512;2023-08-06T05:34:05;11.25;;;2.03;;
81908;SDS011;71372;43.514;1.512;2023-08-06T05:36:31;14.40;;;1.85;;
81908;SDS011;71372;43.514;1.512;2023-08-06T05:38:56;11.88;;;2.20;;
81908;SDS011;71372;43.514;1.512;2023-08-06T05:41:22;10.85;;;1.65;;
81908;SDS011;71372;43.514;1.512;2023-08-06T05:43:48;12.07;;;2.00;;
81908;SDS011;71372;43.514;1.512;2023-08-06T05:46:14;9.10;;;1.48;;
81908;SDS011;71372;43.514;1.512;2023-08-06T05:48:40;11.48;;;1.85;;
81908;SDS011;71372;43.514;1.512;2023-08-06T05:51:06;8.25;;;1.40;;
81908;SDS011;71372;43.514;1.512;2023-08-06T05:53:33;16.75;;;1.85;;
81908;SDS011;71372;43.514;1.512;2023-08-06T05:55:59;10.32;;;1.77;;
81908;SDS011;71372;43.514;1.512;2023-08-06T05:58:25;12.60;;;2.00;;
81908;SDS011;71372;43.514;1.512;2023-08-06T06:00:54;10.55;;;1.60;;
81908;SDS011;71372;43.514;1.512;2023-08-06T06:03:20;8.43;;;1.30;;
81908;SDS011;71372;43.514;1.512;2023-08-06T06:05:46;11.30;;;1.55;;
81908;SDS011;71372;43.514;1.512;2023-08-06T06:08:12;7.40;;;1.55;;
81908;SDS011;71372;43.514;1.512;2023-08-06T06:10:38;11.15;;;2.08;;
81908;SDS011;71372;43.514;1.512;2023-08-06T06:13:04;9.52;;;1.50;;
81908;SDS011;71372;43.514;1.512;2023-08-06T06:15:30;11.48;;;2.15;;
81908;SDS011;71372;43.514;1.512;2023-08-06T06:17:55;9.45;;;1.48;;
81908;SDS011;71372;43.514;1.512;2023-08-06T06:20:22;10.90;;;1.63;;
81908;SDS011;71372;43.514;1.512;2023-08-06T06:22:48;13.40;;;2.33;;
81908;SDS011;71372;43.514;1.512;2023-08-06T06:25:14;8.35;;;1.63;;
81908;SDS011;71372;43.514;1.512;2023-08-06T06:27:40;9.15;;;1.45;;
81908;SDS011;71372;43.514;1.512;2023-08-06T06:30:07;11.75;;;1.70;;
81908;SDS011;71372;43.514;1.512;2023-08-06T06:32:33;7.88;;;1.48;;
81908;SDS011;71372;43.514;1.512;2023-08-06T06:34:59;12.18;;;1.58;;
81908;SDS011;71372;43.514;1.512;2023-08-06T06:37:25;13.45;;;1.85;;
81908;SDS011;71372;43.514;1.512;2023-08-06T06:39:51;10.20;;;1.52;;
81908;SDS011;71372;43.514;1.512;2023-08-06T06:42:17;6.40;;;1.50;;
81908;SDS011;71372;43.514;1.512;2023-08-06T06:44:43;8.65;;;1.90;;
81908;SDS011;71372;43.514;1.512;2023-08-06T06:47:09;8.57;;;1.80;;
81908;SDS011;71372;43.514;1.512;2023-08-06T06:49:35;11.38;;;2.00;;
81908;SDS011;71372;43.514;1.512;2023-08-06T06:52:01;11.85;;;1.80;;
81908;SDS011;71372;43.514;1.512;2023-08-06T06:54:27;10.50;;;1.42;;
81908;SDS011;71372;43.514;1.512;2023-08-06T06:56:53;11.07;;;1.73;;
81908;SDS011;71372;43.514;1.512;2023-08-06T06:59:19;9.30;;;1.67;;
81908;SDS011;71372;43.514;1.512;2023-08-06T07:01:45;14.32;;;1.90;;
81908;SDS011;71372;43.514;1.512;2023-08-06T07:04:11;6.45;;;1.42;;
81908;SDS011;71372;43.514;1.512;2023-08-06T07:06:37;13.45;;;1.88;;
81908;SDS011;71372;43.514;1.512;2023-08-06T07:09:03;6.50;;;1.20;;
81908;SDS011;71372;43.514;1.512;2023-08-06T07:11:29;13.18;;;1.83;;
81908;SDS011;71372;43.514;1.512;2023-08-06T07:13:56;13.18;;;1.50;;
81908;SDS011;71372;43.514;1.512;2023-08-06T07:16:24;12.20;;;1.58;;
81908;SDS011;71372;43.514;1.512;2023-08-06T07:18:51;5.75;;;1.15;;
81908;SDS011;71372;43.514;1.512;2023-08-06T07:21:20;14.02;;;2.10;;
81908;SDS011;71372;43.514;1.512;2023-08-06T07:23:46;7.97;;;1.40;;
81908;SDS011;71372;43.514;1.512;2023-08-06T07:26:15;9.35;;;2.15;;
81908;SDS011;71372;43.514;1.512;2023-08-06T07:28:42;8.43;;;1.50;;
81908;SDS011;71372;43.514;1.512;2023-08-06T07:31:08;9.88;;;1.63;;
81908;SDS011;71372;43.514;1.512;2023-08-06T07:33:34;12.15;;;1.85;;
81908;SDS011;71372;43.514;1.512;2023-08-06T07:36:06;8.85;;;1.48;;
81908;SDS011;71372;43.514;1.512;2023-08-06T07:38:33;7.25;;;1.20;;
81908;SDS011;71372;43.514;1.512;2023-08-06T07:41:01;5.55;;;1.13;;
81908;SDS011;71372;43.514;1.512;2023-08-06T07:43:27;7.38;;;1.30;;
81908;SDS011;71372;43.514;1.512;2023-08-06T07:45:53;10.07;;;1.63;;
81908;SDS011;71372;43.514;1.512;2023-08-06T07:48:19;9.52;;;1.83;;
81908;SDS011;71372;43.514;1.512;2023-08-06T07:50:45;7.22;;;1.35;;
81908;SDS011;71372;43.514;1.512;2023-08-06T07:53:15;9.15;;;2.00;;
81908;SDS011;71372;43.514;1.512;2023-08-06T07:55:41;10.50;;;1.38;;
81908;SDS011;71372;43.514;1.512;2023-08-06T07:58:07;11.45;;;1.80;;
81908;SDS011;71372;43.514;1.512;2023-08-06T08:00:33;9.38;;;1.60;;
81908;SDS011;71372;43.514;1.512;2023-08-06T08:02:59;8.88;;;1.92;;
81908;SDS011;71372;43.514;1.512;2023-08-06T08:05:25;9.60;;;1.42;;
81908;SDS011;71372;43.514;1.512;2023-08-06T08:07:51;7.07;;;1.15;;
81908;SDS011;71372;43.514;1.512;2023-08-06T08:10:17;10.82;;;1.50;;
81908;SDS011;71372;43.514;1.512;2023-08-06T08:12:43;10.27;;;1.67;;
81908;SDS011;71372;43.514;1.512;2023-08-06T08:15:09;7.78;;;1.50;;
81908;SDS011;71372;43.514;1.512;2023-08-06T08:17:35;8.07;;;1.30;;
81908;SDS011;71372;43.514;1.512;2023-08-06T08:20:01;8.55;;;1.70;;
81908;SDS011;71372;43.514;1.512;2023-08-06T08:22:28;10.55;;;1.60;;
81908;SDS011;71372;43.514;1.512;2023-08-06T08:24:54;8.60;;;1.67;;
81908;SDS011;71372;43.514;1.512;2023-08-06T08:27:20;5.55;;;1.40;;
81908;SDS011;71372;43.514;1.512;2023-08-06T08:29:46;6.78;;;1.20;;
81908;SDS011;71372;43.514;1.512;2023-08-06T08:32:12;9.05;;;1.45;;
81908;SDS011;71372;43.514;1.512;2023-08-06T08:34:40;4.70;;;1.08;;
81908;SDS011;71372;43.514;1.512;2023-08-06T08:37:06;8.70;;;1.30;;
81908;SDS011;71372;43.514;1.512;2023-08-06T08:39:32;8.55;;;1.60;;
81908;SDS011;71372;43.514;1.512;2023-08-06T08:41:58;9.75;;;1.60;;
81908;SDS011;71372;43.514;1.512;2023-08-06T08:44:24;8.98;;;1.23;;
81908;SDS011;71372;43.514;1.512;2023-08-06T08:46:53;6.57;;;1.30;;
81908;SDS011;71372;43.514;1.512;2023-08-06T08:49:21;6.78;;;1.17;;
81908;SDS011;71372;43.514;1.512;2023-08-06T08:51:49;4.90;;;1.02;;
81908;SDS011;71372;43.514;1.512;2023-08-06T08:54:18;8.73;;;1.52;;
81908;SDS011;71372;43.514;1.512;2023-08-06T08:56:45;6.18;;;1.08;;
81908;SDS011;71372;43.514;1.512;2023-08-06T08:59:11;10.77;;;1.45;;
81908;SDS011;71372;43.514;1.512;2023-08-06T09:01:37;9.35;;;1.20;;
81908;SDS011;71372;43.514;1.512;2023-08-06T09:04:05;8.00;;;1.17;;
81908;SDS011;71372;43.514;1.512;2023-08-06T09:06:32;6.55;;;1.35;;
81908;SDS011;71372;43.514;1.512;2023-08-06T09:09:09;9.27;;;1.55;;
81908;SDS011;71372;43.514;1.512;2023-08-06T09:11:39;6.78;;;1.10;;
81908;SDS011;71372;43.514;1.512;2023-08-06T09:14:09;10.50;;;1.48;;
81908;SDS011;71372;43.514;1.512;2023-08-06T09:16:36;9.43;;;1.60;;
81908;SDS011;71372;43.514;1.512;2023-08-06T09:19:12;6.97;;;1.48;;
81908;SDS011;71372;43.514;1.512;2023-08-06T09:21:41;8.27;;;1.42;;
81908;SDS011;71372;43.514;1.512;2023-08-06T09:24:11;8.02;;;1.75;;
81908;SDS011;71372;43.514;1.512;2023-08-06T09:26:38;7.50;;;1.20;;
81908;SDS011;71372;43.514;1.512;2023-08-06T09:29:06;4.18;;;1.00;;
81908;SDS011;71372;43.514;1.512;2023-08-06T09:31:43;5.00;;;1.20;;
81908;SDS011;71372;43.514;1.512;2023-08-06T09:34:17;5.40;;;1.60;;
81908;SDS011;71372;43.514;1.512;2023-08-06T09:36:48;6.43;;;1.40;;
81908;SDS011;71372;43.514;1.512;2023-08-06T09:39:17;7.85;;;1.38;;
81908;SDS011;71372;43.514;1.512;2023-08-06T09:41:47;9.25;;;1.98;;
81908;SDS011;71372;43.514;1.512;2023-08-06T09:44:17;5.43;;;1.05;;
81908;SDS011;71372;43.514;1.512;2023-08-06T09:46:51;9.43;;;1.20;;
81908;SDS011;71372;43.514;1.512;2023-08-06T09:49:19;8.45;;;1.13;;
81908;SDS011;71372;43.514;1.512;2023-08-06T09:51:46;3.75;;;0.90;;
81908;SDS011;71372;43.514;1.512;2023-08-06T09:54:16;7.43;;;1.45;;
81908;SDS011;71372;43.514;1.512;2023-08-06T09:56:44;8.32;;;1.20;;
81908;SDS011;71372;43.514;1.512;2023-08-06T09:59:10;7.28;;;1.20;;
81908;SDS011;71372;43.514;1.512;2023-08-06T10:01:39;10.15;;;1.67;;
81908;SDS011;71372;43.514;1.512;2023-08-06T10:04:06;8.60;;;1.60;;
81908;SDS011;71372;43.514;1.512;2023-08-06T10:06:37;7.28;;;1.20;;
81908;SDS011;71372;43.514;1.512;2023-08-06T10:09:04;6.63;;;1.10;;
81908;SDS011;71372;43.514;1.512;2023-08-06T10:11:30;6.68;;;1.48;;
81908;SDS011;71372;43.514;1.512;2023-08-06T10:14:06;5.25;;;1.17;;
81908;SDS011;71372;43.514;1.512;2023-08-06T10:16:37;7.20;;;0.75;;
81908;SDS011;71372;43.514;1.512;2023-08-06T10:19:05;7.07;;;1.50;;
81908;SDS011;71372;43.514;1.512;2023-08-06T10:21:34;7.53;;;1.42;;
81908;SDS011;71372;43.514;1.512;2023-08-06T10:24:00;9.82;;;1.35;;
81908;SDS011;71372;43.514;1.512;2023-08-06T10:28:54;5.32;;;1.48;;
81908;SDS011;71372;43.514;1.512;2023-08-06T10:34:20;3.67;;;1.15;;
81908;SDS011;71372;43.514;1.512;2023-08-06T10:36:47;7.32;;;1.65;;
81908;SDS011;71372;43.514;1.512;2023-08-06T10:39:13;6.03;;;1.58;;
81908;SDS011;71372;43.514;1.512;2023-08-06T10:41:40;9.48;;;1.42;;
81908;SDS011;71372;43.514;1.512;2023-08-06T10:44:08;5.20;;;1.30;;
81908;SDS011;71372;43.514;1.512;2023-08-06T10:46:36;7.57;;;1.90;;
81908;SDS011;71372;43.514;1.512;2023-08-06T10:49:04;6.65;;;1.58;;
81908;SDS011;71372;43.514;1.512;2023-08-06T10:51:30;5.07;;;1.20;;
81908;SDS011;71372;43.514;1.512;2023-08-06T10:53:56;4.55;;;0.90;;
81908;SDS011;71372;43.514;1.512;2023-08-06T10:56:24;6.28;;;1.13;;
81908;SDS011;71372;43.514;1.512;2023-08-06T10:58:53;6.85;;;1.40;;
81908;SDS011;71372;43.514;1.512;2023-08-06T11:01:22;5.13;;;1.23;;
81908;SDS011;71372;43.514;1.512;2023-08-06T11:03:49;7.72;;;1.58;;
81908;SDS011;71372;43.514;1.512;2023-08-06T11:06:17;5.53;;;1.33;;
81908;SDS011;71372;43.514;1.512;2023-08-06T11:08:50;5.25;;;1.35;;
81908;SDS011;71372;43.514;1.512;2023-08-06T11:13:45;4.40;;;1.23;;
81908;SDS011;71372;43.514;1.512;2023-08-06T11:16:13;7.45;;;1.27;;
81908;SDS011;71372;43.514;1.512;2023-08-06T11:21:07;7.38;;;1.30;;
81908;SDS011;71372;43.514;1.512;2023-08-06T11:23:33;6.75;;;1.40;;
81908;SDS011;71372;43.514;1.512;2023-08-06T11:26:00;6.95;;;1.00;;
81908;SDS011;71372;43.514;1.512;2023-08-06T11:28:27;9.77;;;1.30;;
81908;SDS011;71372;43.514;1.512;2023-08-06T11:30:53;4.97;;;1.25;;
81908;SDS011;71372;43.514;1.512;2023-08-06T11:35:48;3.53;;;1.08;;
81908;SDS011;71372;43.514;1.512;2023-08-06T11:38:15;7.07;;;1.17;;
81908;SDS011;71372;43.514;1.512;2023-08-06T11:40:43;4.13;;;1.13;;
81908;SDS011;71372;43.514;1.512;2023-08-06T11:43:11;8.23;;;1.10;;
81908;SDS011;71372;43.514;1.512;2023-08-06T11:45:38;7.25;;;1.38;;
81908;SDS011;71372;43.514;1.512;2023-08-06T11:48:05;5.32;;;1.30;;
81908;SDS011;71372;43.514;1.512;2023-08-06T11:50:31;4.63;;;1.10;;
81908;SDS011;71372;43.514;1.512;2023-08-06T11:53:01;7.35;;;1.50;;
81908;SDS011;71372;43.514;1.512;2023-08-06T11:55:27;6.00;;;1.20;;
81908;SDS011;71372;43.514;1.512;2023-08-06T11:57:54;7.20;;;1.20;;
81908;SDS011;71372;43.514;1.512;2023-08-06T12:00:22;10.35;;;1.25;;
81908;SDS011;71372;43.514;1.512;2023-08-06T12:02:49;5.45;;;1.15;;
81908;SDS011;71372;43.514;1.512;2023-08-06T12:05:18;4.40;;;1.20;;
81908;SDS011;71372;43.514;1.512;2023-08-06T12:07:57;5.45;;;1.10;;
81908;SDS011;71372;43.514;1.512;2023-08-06T12:10:26;2.83;;;0.95;;
81908;SDS011;71372;43.514;1.512;2023-08-06T12:12:53;5.53;;;1.10;;
81908;SDS011;71372;43.514;1.512;2023-08-06T12:15:19;6.07;;;1.23;;
81908;SDS011;71372;43.514;1.512;2023-08-06T12:17:45;5.20;;;1.20;;
81908;SDS011;71372;43.514;1.512;2023-08-06T12:20:11;4.20;;;1.13;;
81908;SDS011;71372;43.514;1.512;2023-08-06T12:22:38;4.10;;;0.95;;
81908;SDS011;71372;43.514;1.512;2023-08-06T12:25:06;6.72;;;1.33;;
81908;SDS011;71372;43.514;1.512;2023-08-06T12:27:41;5.47;;;1.13;;
81908;SDS011;71372;43.514;1.512;2023-08-06T12:30:08;7.10;;;1.27;;
81908;SDS011;71372;43.514;1.512;2023-08-06T12:32:34;7.82;;;1.35;;
81908;SDS011;71372;43.514;1.512;2023-08-06T12:35:00;8.15;;;1.17;;
81908;SDS011;71372;43.514;1.512;2023-08-06T12:37:27;3.45;;;1.13;;
81908;SDS011;71372;43.514;1.512;2023-08-06T12:39:53;4.70;;;1.30;;
81908;SDS011;71372;43.514;1.512;2023-08-06T12:42:19;5.00;;;0.98;;
81908;SDS011;71372;43.514;1.512;2023-08-06T12:44:45;4.63;;;0.90;;
81908;SDS011;71372;43.514;1.512;2023-08-06T12:47:11;3.13;;;1.08;;
81908;SDS011;71372;43.514;1.512;2023-08-06T12:49:37;4.03;;;1.00;;
81908;SDS011;71372;43.514;1.512;2023-08-06T12:52:03;9.05;;;1.23;;
81908;SDS011;71372;43.514;1.512;2023-08-06T12:54:31;6.70;;;1.10;;
81908;SDS011;71372;43.514;1.512;2023-08-06T12:57:02;4.40;;;1.10;;
81908;SDS011;71372;43.514;1.512;2023-08-06T12:59:29;4.13;;;0.93;;
81908;SDS011;71372;43.514;1.512;2023-08-06T13:01:55;4.93;;;1.10;;
81908;SDS011;71372;43.514;1.512;2023-08-06T13:04:21;4.93;;;1.10;;
81908;SDS011;71372;43.514;1.512;2023-08-06T13:06:47;4.55;;;1.00;;
81908;SDS011;71372;43.514;1.512;2023-08-06T13:09:13;6.03;;;1.00;;
81908;SDS011;71372;43.514;1.512;2023-08-06T13:11:41;3.13;;;1.00;;
81908;SDS011;71372;43.514;1.512;2023-08-06T13:14:08;4.20;;;0.80;;
81908;SDS011;71372;43.514;1.512;2023-08-06T13:16:36;3.17;;;0.98;;
81908;SDS011;71372;43.514;1.512;2023-08-06T13:21:32;6.38;;;1.33;;
81908;SDS011;71372;43.514;1.512;2023-08-06T13:24:02;3.53;;;0.95;;
81908;SDS011;71372;43.514;1.512;2023-08-06T13:26:29;4.38;;;1.23;;
81908;SDS011;71372;43.514;1.512;2023-08-06T13:31:25;3.72;;;0.95;;
81908;SDS011;71372;43.514;1.512;2023-08-06T13:33:52;4.72;;;1.00;;
81908;SDS011;71372;43.514;1.512;2023-08-06T13:36:21;3.33;;;0.90;;
81908;SDS011;71372;43.514;1.512;2023-08-06T13:38:48;5.25;;;1.10;;
81908;SDS011;71372;43.514;1.512;2023-08-06T13:41:14;3.88;;;0.95;;
81908;SDS011;71372;43.514;1.512;2023-08-06T13:43:41;3.40;;;0.90;;
81908;SDS011;71372;43.514;1.512;2023-08-06T13:46:07;5.55;;;1.00;;
81908;SDS011;71372;43.514;1.512;2023-08-06T13:48:33;4.30;;;1.08;;
81908;SDS011;71372;43.514;1.512;2023-08-06T13:50:59;6.68;;;1.23;;
81908;SDS011;71372;43.514;1.512;2023-08-06T13:53:25;5.10;;;1.10;;
81908;SDS011;71372;43.514;1.512;2023-08-06T13:55:55;3.50;;;1.10;;
81908;SDS011;71372;43.514;1.512;2023-08-06T14:00:48;5.18;;;1.40;;
81908;SDS011;71372;43.514;1.512;2023-08-06T14:03:15;6.20;;;1.17;;
81908;SDS011;71372;43.514;1.512;2023-08-06T14:05:41;3.05;;;0.80;;
81908;SDS011;71372;43.514;1.512;2023-08-06T14:08:07;1.85;;;0.75;;
81908;SDS011;71372;43.514;1.512;2023-08-06T14:10:33;3.40;;;0.88;;
81908;SDS011;71372;43.514;1.512;2023-08-06T14:12:59;3.83;;;0.90;;
81908;SDS011;71372;43.514;1.512;2023-08-06T14:15:25;4.65;;;0.75;;
81908;SDS011;71372;43.514;1.512;2023-08-06T14:17:50;4.63;;;1.00;;
81908;SDS011;71372;43.514;1.512;2023-08-06T14:20:16;3.38;;;0.90;;
81908;SDS011;71372;43.514;1.512;2023-08-06T14:22:42;4.10;;;0.90;;
81908;SDS011;71372;43.514;1.512;2023-08-06T14:25:08;4.63;;;1.00;;
81908;SDS011;71372;43.514;1.512;2023-08-06T14:27:34;3.92;;;1.20;;
81908;SDS011;71372;43.514;1.512;2023-08-06T14:30:00;3.35;;;1.00;;
81908;SDS011;71372;43.514;1.512;2023-08-06T14:32:28;3.70;;;0.90;;
81908;SDS011;71372;43.514;1.512;2023-08-06T14:34:54;5.47;;;1.10;;
81908;SDS011;71372;43.514;1.512;2023-08-06T14:37:21;3.72;;;1.05;;
81908;SDS011;71372;43.514;1.512;2023-08-06T14:39:47;4.10;;;0.98;;
81908;SDS011;71372;43.514;1.512;2023-08-06T14:42:13;4.65;;;1.08;;
81908;SDS011;71372;43.514;1.512;2023-08-06T14:44:39;3.75;;;1.00;;
81908;SDS011;71372;43.514;1.512;2023-08-06T14:49:33;4.93;;;0.98;;
81908;SDS011;71372;43.514;1.512;2023-08-06T14:51:59;3.22;;;0.82;;
81908;SDS011;71372;43.514;1.512;2023-08-06T14:54:27;3.45;;;0.90;;
81908;SDS011;71372;43.514;1.512;2023-08-06T14:56:53;2.38;;;0.85;;
81908;SDS011;71372;43.514;1.512;2023-08-06T14:59:19;6.70;;;1.20;;
81908;SDS011;71372;43.514;1.512;2023-08-06T15:01:48;3.60;;;1.00;;
81908;SDS011;71372;43.514;1.512;2023-08-06T15:04:17;4.15;;;0.93;;
81908;SDS011;71372;43.514;1.512;2023-08-06T15:06:47;4.75;;;0.80;;
81908;SDS011;71372;43.514;1.512;2023-08-06T15:09:19;5.10;;;1.17;;
81908;SDS011;71372;43.514;1.512;2023-08-06T15:11:47;5.28;;;1.08;;
81908;SDS011;71372;43.514;1.512;2023-08-06T15:14:14;4.47;;;1.30;;
81908;SDS011;71372;43.514;1.512;2023-08-06T15:16:40;4.97;;;1.00;;